createdAt,value
2023-03-30T00:01:14.572Z,98231.97
2023-03-30T00:04:18.776Z,98243.13
2023-03-30T00:07:21.466Z,98230.81
2023-03-30T00:10:24.170Z,98221.06
2023-03-30T00:13:26.921Z,98224.16
2023-03-30T00:16:29.588Z,98227.44
2023-03-30T00:19:33.604Z,98221.19
2023-03-30T00:22:36.443Z,98222.03
2023-03-30T00:25:39.164Z,98221.06
2023-03-30T00:28:42.277Z,98213.91
2023-03-30T00:31:44.907Z,98212.72
2023-03-30T00:34:48.811Z,98202.72
2023-03-30T00:37:51.430Z,98208.34
2023-03-30T00:40:54.998Z,98193.63
2023-03-30T00:43:59.428Z,98189.09
2023-03-30T00:47:02.149Z,98181.72
2023-03-30T00:50:07.978Z,98175.78
2023-03-30T00:53:12.767Z,98169.41
2023-03-30T00:56:18.094Z,98169.94
2023-03-30T00:59:20.736Z,98165.25
2023-03-30T01:02:23.432Z,98157.03
2023-03-30T01:05:28.283Z,98159.25
2023-03-30T01:08:32.602Z,98158.19
2023-03-30T01:11:35.228Z,98157.25
2023-03-30T01:14:38.604Z,98152.34
2023-03-30T01:17:53.771Z,98150.22
2023-03-30T01:21:37.696Z,98157.50
2023-03-30T01:25:03.720Z,98164.13
2023-03-30T01:28:22.295Z,98170.25
2023-03-30T01:31:50.569Z,98181.09
2023-03-30T01:35:04.799Z,98206.69
2023-03-30T01:38:40.577Z,98188.47
2023-03-30T01:41:52.006Z,98165.72
2023-03-30T01:44:59.469Z,98163.47
2023-03-30T01:48:07.020Z,98149.06
2023-03-30T01:51:12.139Z,98135.44
2023-03-30T01:54:19.250Z,98144.25
2023-03-30T01:57:28.037Z,98167.34
2023-03-30T02:00:31.011Z,98170.69
2023-03-30T02:03:36.361Z,98172.19
2023-03-30T02:06:44.259Z,98165.97
2023-03-30T02:09:48.254Z,98170.09
2023-03-30T02:12:52.846Z,98172.56
2023-03-30T02:15:57.993Z,98177.13
2023-03-30T02:19:01.775Z,98181.38
2023-03-30T02:22:04.436Z,98179.78
2023-03-30T02:25:07.889Z,98185.06
2023-03-30T02:28:11.933Z,98197.59
2023-03-30T02:31:16.078Z,98201.22
2023-03-30T02:34:24.470Z,98199.38
2023-03-30T02:37:45.023Z,98203.75
2023-03-30T02:40:56.182Z,98197.09
2023-03-30T02:44:07.588Z,98200.41
2023-03-30T02:47:14.546Z,98200.63
2023-03-30T02:50:21.167Z,98199.34
2023-03-30T02:53:27.274Z,98196.16
2023-03-30T02:56:37.519Z,98192.09
2023-03-30T02:59:47.424Z,98173.13
2023-03-30T03:02:53.951Z,98164.13
2023-03-30T03:05:56.886Z,98159.88
2023-03-30T03:09:00.116Z,98143.22
2023-03-30T03:12:02.636Z,98136.22
2023-03-30T03:15:07.656Z,98122.31
2023-03-30T03:18:10.674Z,98120.63
2023-03-30T03:21:14.694Z,98116.97
2023-03-30T03:24:19.105Z,98116.19
2023-03-30T03:27:21.899Z,98120.72
2023-03-30T03:30:25.878Z,98118.84
2023-03-30T03:33:28.676Z,98112.69
2023-03-30T03:36:32.428Z,98121.53
2023-03-30T03:39:37.142Z,98120.28
2023-03-30T03:42:39.998Z,98115.00
2023-03-30T03:45:43.985Z,98119.84
2023-03-30T03:48:46.684Z,98118.16
2023-03-30T03:51:49.331Z,98120.91
2023-03-30T03:54:51.881Z,98126.22
2023-03-30T03:57:54.438Z,98117.47
2023-03-30T04:01:01.147Z,98104.84
2023-03-30T04:04:03.855Z,98115.78
2023-03-30T04:07:06.589Z,98104.31
2023-03-30T04:10:09.747Z,98103.75
2023-03-30T04:13:12.710Z,98106.13
2023-03-30T04:16:16.866Z,98093.41
2023-03-30T04:19:19.397Z,98080.34
2023-03-30T04:22:24.274Z,98063.22
2023-03-30T04:25:26.862Z,98041.16
2023-03-30T04:28:29.834Z,98042.72
2023-03-30T04:31:35.404Z,98047.00
2023-03-30T04:34:38.706Z,98032.19
2023-03-30T04:37:42.219Z,98022.84
2023-03-30T04:40:44.758Z,98020.59
2023-03-30T04:43:47.271Z,98015.84
2023-03-30T04:46:51.318Z,98012.22
2023-03-30T04:49:53.947Z,98005.28
2023-03-30T04:52:56.477Z,98006.00
2023-03-30T04:55:59.066Z,98009.38
2023-03-30T04:59:01.653Z,98001.88
2023-03-30T05:02:05.503Z,98002.94
2023-03-30T05:05:08.766Z,98024.72
2023-03-30T05:08:11.376Z,98022.19
2023-03-30T05:11:14.348Z,98014.69
2023-03-30T05:14:17.251Z,98004.22
2023-03-30T05:17:21.540Z,97994.28
2023-03-30T05:20:25.182Z,97994.66
2023-03-30T05:23:27.538Z,97988.09
2023-03-30T05:26:30.454Z,97991.13
2023-03-30T05:29:33.283Z,97990.38
2023-03-30T05:32:37.327Z,97990.84
2023-03-30T05:35:40.133Z,97980.97
2023-03-30T05:38:42.856Z,97970.31
2023-03-30T05:41:45.421Z,97979.84
2023-03-30T05:44:48.049Z,97975.78
2023-03-30T05:47:54.070Z,97970.84
2023-03-30T05:50:56.788Z,97969.41
2023-03-30T05:53:59.300Z,97986.75
2023-03-30T05:57:02.127Z,97998.34
2023-03-30T06:00:06.929Z,98020.06
2023-03-30T06:03:11.752Z,98019.47
2023-03-30T06:06:14.675Z,98013.28
2023-03-30T06:09:17.309Z,98025.06
2023-03-30T06:12:19.826Z,98037.56
2023-03-30T06:15:22.321Z,98057.22
2023-03-30T06:18:26.383Z,98072.53
2023-03-30T06:21:29.351Z,98078.53
2023-03-30T06:24:31.857Z,98068.41
2023-03-30T06:27:34.392Z,98074.84
2023-03-30T06:30:37.098Z,98073.03
2023-03-30T06:33:41.965Z,98077.47
2023-03-30T06:36:46.200Z,98086.59
2023-03-30T06:39:48.869Z,98096.63
2023-03-30T06:42:51.780Z,98103.94
2023-03-30T06:45:56.183Z,98106.59
2023-03-30T06:49:00.228Z,98111.22
2023-03-30T06:52:05.037Z,98140.03
2023-03-30T06:55:09.732Z,98171.59
2023-03-30T06:58:12.617Z,98184.22
2023-03-30T07:01:16.804Z,98186.38
2023-03-30T07:04:20.796Z,98183.16
2023-03-30T07:07:23.728Z,98193.16
2023-03-30T07:10:26.672Z,98197.66
2023-03-30T07:13:29.318Z,98212.56
2023-03-30T07:16:32.206Z,98196.31
2023-03-30T07:19:36.579Z,98211.00
2023-03-30T07:22:39.142Z,98227.00
2023-03-30T07:25:42.195Z,98232.13
2023-03-30T07:28:45.735Z,98236.25
2023-03-30T07:31:48.500Z,98244.31
2023-03-30T07:34:52.564Z,98254.31
2023-03-30T07:38:02.836Z,98241.06
2023-03-30T07:41:09.978Z,98219.88
2023-03-30T07:44:12.589Z,98220.72
2023-03-30T07:47:15.271Z,98198.22
2023-03-30T07:50:19.340Z,98198.53
2023-03-30T07:53:22.799Z,98223.88
2023-03-30T07:56:25.227Z,98214.69
2023-03-30T07:59:27.781Z,98202.56
2023-03-30T08:02:30.712Z,98186.50
2023-03-30T08:05:34.858Z,98186.16
2023-03-30T08:08:40.890Z,98212.63
2023-03-30T08:11:46.836Z,98225.41
2023-03-30T08:14:49.402Z,98244.94
2023-03-30T08:17:52.199Z,98268.09
2023-03-30T08:20:56.204Z,98285.75
2023-03-30T08:23:59.313Z,98307.97
2023-03-30T08:27:02.028Z,98307.97
2023-03-30T08:30:05.423Z,98295.53
2023-03-30T08:33:08.990Z,98289.13
2023-03-30T08:36:13.769Z,98270.25
2023-03-30T08:39:16.768Z,98271.69
2023-03-30T08:42:49.811Z,98280.84
2023-03-30T08:45:52.940Z,98267.78
2023-03-30T08:48:57.801Z,98262.50
2023-03-30T08:52:03.234Z,98248.41
2023-03-30T08:55:06.777Z,98241.31
2023-03-30T08:58:14.579Z,98242.13
2023-03-30T09:01:20.596Z,98225.34
2023-03-30T09:04:29.088Z,98204.44
2023-03-30T09:07:38.354Z,98213.59
2023-03-30T09:10:42.893Z,98203.84
2023-03-30T09:13:46.450Z,98194.59
2023-03-30T09:16:52.536Z,98189.19
2023-03-30T09:19:57.189Z,98185.34
2023-03-30T09:23:02.254Z,98184.03
2023-03-30T09:26:14.762Z,98182.03
2023-03-30T09:29:20.086Z,98182.94
2023-03-30T09:32:29.733Z,98175.22
2023-03-30T09:35:38.562Z,98195.28
2023-03-30T09:38:42.850Z,98210.94
2023-03-30T09:41:56.245Z,98193.72
2023-03-30T09:45:02.103Z,98218.88
2023-03-30T09:48:06.734Z,98222.06
2023-03-30T09:51:23.193Z,98249.69
2023-03-30T09:54:35.777Z,98245.03
2023-03-30T09:57:38.416Z,98248.81
2023-03-30T10:00:41.191Z,98257.00
2023-03-30T10:03:45.605Z,98258.34
2023-03-30T10:06:49.260Z,98256.69
2023-03-30T10:09:53.017Z,98251.38
2023-03-30T10:12:56.575Z,98246.41
2023-03-30T10:16:05.216Z,98249.22
2023-03-30T10:19:17.259Z,98241.38
2023-03-30T10:22:22.434Z,98253.66
2023-03-30T10:25:31.414Z,98241.19
2023-03-30T10:28:35.900Z,98230.34
2023-03-30T10:31:40.057Z,98228.13
2023-03-30T10:34:44.201Z,98239.09
2023-03-30T10:37:48.152Z,98214.72
2023-03-30T10:40:55.713Z,98202.94
2023-03-30T10:43:58.330Z,98217.31
2023-03-30T10:47:09.917Z,98217.38
2023-03-30T10:50:20.059Z,98213.16
2023-03-30T10:53:28.825Z,98214.09
2023-03-30T10:56:36.114Z,98211.78
2023-03-30T10:59:59.979Z,98199.91
2023-03-30T11:03:08.751Z,98197.53
2023-03-30T11:06:14.721Z,98179.69
2023-03-30T11:09:19.528Z,98171.00
2023-03-30T11:12:35.346Z,98179.47
2023-03-30T11:15:42.253Z,98214.22
2023-03-30T11:18:49.256Z,98212.38
2023-03-30T11:21:56.809Z,98202.13
2023-03-30T11:25:00.510Z,98215.06
2023-03-30T11:28:13.069Z,98208.41
2023-03-30T11:31:24.940Z,98213.06
2023-03-30T11:34:32.477Z,98212.25
2023-03-30T11:37:38.399Z,98217.28
2023-03-30T11:40:44.002Z,98222.09
2023-03-30T11:43:47.913Z,98217.41
2023-03-30T11:46:54.926Z,98212.63
2023-03-30T11:50:07.368Z,98207.13
2023-03-30T11:53:17.877Z,98206.88
2023-03-30T11:56:26.184Z,98217.56
2023-03-30T11:59:35.558Z,98222.31
2023-03-30T12:02:44.910Z,98230.34
2023-03-30T12:05:49.286Z,98229.47
2023-03-30T12:09:01.058Z,98235.19
2023-03-30T12:12:06.686Z,98219.78
2023-03-30T12:15:32.239Z,98226.81
2023-03-30T12:18:40.420Z,98231.53
2023-03-30T12:21:49.065Z,98234.81
2023-03-30T12:24:55.460Z,98233.09
2023-03-30T12:27:59.847Z,98207.44
2023-03-30T12:31:03.915Z,98193.88
2023-03-30T12:34:08.268Z,98220.59
2023-03-30T12:37:14.016Z,98214.25
2023-03-30T12:40:22.160Z,98194.31
2023-03-30T12:43:31.212Z,98196.72
2023-03-30T12:46:38.056Z,98203.06
2023-03-30T12:49:50.617Z,98178.41
2023-03-30T12:53:04.188Z,98179.97
2023-03-30T12:56:08.381Z,98178.94
2023-03-30T12:59:31.624Z,98179.03
2023-03-30T13:02:48.310Z,98157.66
2023-03-30T13:05:53.176Z,98164.78
2023-03-30T13:08:58.029Z,98149.59
2023-03-30T13:12:29.073Z,98148.31
2023-03-30T13:15:35.199Z,98150.03
2023-03-30T13:18:53.839Z,98137.81
2023-03-30T13:21:58.133Z,98151.56
2023-03-30T13:25:02.732Z,98147.03
2023-03-30T13:28:46.285Z,98163.00
2023-03-30T13:32:05.870Z,98126.44
2023-03-30T13:35:30.799Z,98120.59
2023-03-30T13:38:40.072Z,98122.66
2023-03-30T13:41:49.996Z,98136.66
2023-03-30T13:44:59.966Z,98149.72
2023-03-30T13:48:12.106Z,98137.81
2023-03-30T13:51:16.953Z,98146.38
2023-03-30T13:54:23.328Z,98145.31
2023-03-30T13:57:32.484Z,98137.75
2023-03-30T14:00:47.259Z,98128.47
2023-03-30T14:03:52.607Z,98114.72
2023-03-30T14:06:58.208Z,98118.28
2023-03-30T14:10:06.298Z,98104.09
2023-03-30T14:13:13.727Z,98105.41
2023-03-30T14:16:26.159Z,98101.28
2023-03-30T14:19:30.437Z,98096.63
2023-03-30T14:22:33.736Z,98077.34
2023-03-30T14:25:36.905Z,98112.88
2023-03-30T14:28:42.348Z,98124.19
2023-03-30T14:31:56.816Z,98119.69
2023-03-30T14:35:08.617Z,98120.28
2023-03-30T14:38:17.046Z,98100.53
2023-03-30T14:41:23.799Z,98101.34
2023-03-30T14:44:26.356Z,98128.13
2023-03-30T14:47:30.466Z,98131.19
2023-03-30T14:50:33.226Z,98136.59
2023-03-30T14:53:36.281Z,98134.09
2023-03-30T14:56:38.860Z,98135.13
2023-03-30T14:59:45.947Z,98141.66
2023-03-30T15:02:51.867Z,98159.53
2023-03-30T15:05:54.884Z,98137.16
2023-03-30T15:09:01.928Z,98121.06
2023-03-30T15:12:05.866Z,98121.28
2023-03-30T15:15:09.529Z,98137.78
2023-03-30T15:18:18.028Z,98133.84
2023-03-30T15:21:21.568Z,98130.09
2023-03-30T15:24:26.653Z,98128.38
2023-03-30T15:27:29.411Z,98130.09
2023-03-30T15:30:34.320Z,98136.81
2023-03-30T15:33:42.837Z,98158.75
2023-03-30T15:36:46.261Z,98150.94
2023-03-30T15:39:49.644Z,98168.75
2023-03-30T15:42:52.312Z,98167.22
2023-03-30T15:45:57.900Z,98158.34
2023-03-30T15:49:01.889Z,98157.78
2023-03-30T15:52:10.773Z,98163.16
2023-03-30T15:55:19.214Z,98142.34
2023-03-30T15:58:25.906Z,98155.69
2023-03-30T16:01:40.638Z,98154.28
2023-03-30T16:04:44.788Z,98141.69
2023-03-30T16:07:47.613Z,98150.50
2023-03-30T16:10:50.835Z,98134.00
2023-03-30T16:13:53.566Z,98150.25
2023-03-30T16:16:56.101Z,98142.53
2023-03-30T16:20:00.227Z,98146.59
2023-03-30T16:23:04.417Z,98145.66
2023-03-30T16:26:08.019Z,98149.38
2023-03-30T16:29:16.537Z,98139.97
2023-03-30T16:32:19.133Z,98154.00
2023-03-30T16:35:23.667Z,98154.88
2023-03-30T16:38:26.321Z,98159.19
2023-03-30T16:41:28.831Z,98157.09
2023-03-30T16:44:31.474Z,98154.06
2023-03-30T16:47:37.223Z,98155.06
2023-03-30T16:50:42.910Z,98172.38
2023-03-30T16:53:45.501Z,98176.19
2023-03-30T16:56:48.093Z,98168.94
2023-03-30T16:59:51.482Z,98181.00
2023-03-30T17:02:53.969Z,98175.78
2023-03-30T17:05:57.915Z,98183.63
2023-03-30T17:09:01.016Z,98172.38
2023-03-30T17:12:03.605Z,98166.09
2023-03-30T17:15:07.054Z,98171.69
2023-03-30T17:18:11.390Z,98179.56
2023-03-30T17:21:17.079Z,98180.38
2023-03-30T17:24:20.106Z,98180.38
2023-03-30T17:27:22.815Z,98185.38
2023-03-30T17:30:26.870Z,98190.38
2023-03-30T17:33:30.595Z,98177.59
2023-03-30T17:36:34.479Z,98177.81
2023-03-30T17:39:37.011Z,98182.34
2023-03-30T17:42:39.669Z,98189.88
2023-03-30T17:45:43.103Z,98174.34
2023-03-30T17:48:45.699Z,98180.56
2023-03-30T17:51:50.151Z,98186.34
2023-03-30T17:54:52.780Z,98183.78
2023-03-30T17:57:56.468Z,98189.88
2023-03-30T18:01:00.891Z,98185.50
2023-03-30T18:04:03.679Z,98188.88
2023-03-30T18:07:08.411Z,98183.16
2023-03-30T18:10:16.702Z,98179.63
2023-03-30T18:13:19.964Z,98194.50
2023-03-30T18:16:24.325Z,98205.22
2023-03-30T18:19:27.713Z,98204.31
2023-03-30T18:22:31.594Z,98198.63
2023-03-30T18:25:34.266Z,98208.09
2023-03-30T18:28:39.232Z,98218.94
2023-03-30T18:31:41.876Z,98218.06
2023-03-30T18:34:44.456Z,98213.34
2023-03-30T18:37:50.721Z,98209.50
2023-03-30T18:40:57.518Z,98214.38
2023-03-30T18:44:00.802Z,98216.69
2023-03-30T18:47:03.329Z,98211.03
2023-03-30T18:50:10.089Z,98214.28
2023-03-30T18:53:14.787Z,98212.72
2023-03-30T18:56:17.327Z,98219.16
2023-03-30T18:59:22.918Z,98233.34
2023-03-30T19:02:26.508Z,98242.38
2023-03-30T19:05:30.955Z,98236.06
2023-03-30T19:08:34.772Z,98231.16
2023-03-30T19:11:37.671Z,98237.19
2023-03-30T19:14:40.349Z,98242.34
2023-03-30T19:17:42.972Z,98245.78
2023-03-30T19:20:46.247Z,98245.97
2023-03-30T19:23:50.118Z,98241.88
2023-03-30T19:26:52.784Z,98240.91
2023-03-30T19:29:55.351Z,98236.09
2023-03-30T19:32:59.605Z,98241.28
2023-03-30T19:36:02.236Z,98232.81
2023-03-30T19:39:06.217Z,98236.09
2023-03-30T19:42:09.382Z,98241.59
2023-03-30T19:45:12.561Z,98233.50
2023-03-30T19:48:15.351Z,98224.03
2023-03-30T19:51:18.995Z,98235.22
2023-03-30T19:54:23.012Z,98229.25
2023-03-30T19:57:25.769Z,98225.41
2023-03-30T20:00:28.627Z,98213.31
2023-03-30T20:03:31.267Z,98211.72
2023-03-30T20:06:35.868Z,98220.00
2023-03-30T20:09:40.707Z,98210.34
2023-03-30T20:12:43.382Z,98201.56
2023-03-30T20:15:46.304Z,98205.31
2023-03-30T20:18:50.601Z,98200.28
2023-03-30T20:21:53.204Z,98206.88
2023-03-30T20:24:58.419Z,98201.19
2023-03-30T20:28:00.975Z,98199.13
2023-03-30T20:31:03.832Z,98196.63
2023-03-30T20:34:07.614Z,98197.75
2023-03-30T20:37:10.004Z,98202.22
2023-03-30T20:40:14.627Z,98190.94
2023-03-30T20:43:17.333Z,98193.34
2023-03-30T20:46:21.942Z,98187.50
2023-03-30T20:49:24.852Z,98181.09
2023-03-30T20:52:27.602Z,98181.31
2023-03-30T20:55:31.579Z,98184.75
2023-03-30T20:58:34.180Z,98182.16
2023-03-30T21:01:38.899Z,98176.34
2023-03-30T21:04:42.803Z,98185.91
2023-03-30T21:07:47.122Z,98183.19
2023-03-30T21:10:51.597Z,98181.34
2023-03-30T21:13:55.370Z,98188.91
2023-03-30T21:16:57.947Z,98186.16
2023-03-30T21:20:00.673Z,98178.50
2023-03-30T21:23:03.672Z,98164.91
2023-03-30T21:26:08.052Z,98175.41
2023-03-30T21:29:10.814Z,98170.41
2023-03-30T21:32:13.365Z,98160.03
2023-03-30T21:35:16.251Z,98156.69
2023-03-30T21:38:19.485Z,98155.59
2023-03-30T21:41:24.203Z,98150.75
2023-03-30T21:44:26.857Z,98144.97
2023-03-30T21:47:29.513Z,98129.00
2023-03-30T21:50:32.106Z,98136.16
2023-03-30T21:53:35.759Z,98130.22
2023-03-30T21:56:39.680Z,98131.59
2023-03-30T21:59:42.293Z,98125.66
2023-03-30T22:02:44.926Z,98118.47
2023-03-30T22:05:48.071Z,98100.41
2023-03-30T22:08:50.961Z,98104.13
2023-03-30T22:11:55.438Z,98102.75
2023-03-30T22:14:58.042Z,98099.34
2023-03-30T22:18:00.614Z,98096.81
2023-03-30T22:21:06.437Z,98088.59
2023-03-30T22:24:09.212Z,98092.91
2023-03-30T22:27:13.128Z,98091.72
2023-03-30T22:30:16.438Z,98090.50
2023-03-30T22:33:19.309Z,98081.28
2023-03-30T22:36:24.449Z,98086.63
2023-03-30T22:39:26.949Z,98071.66
2023-03-30T22:42:30.893Z,98083.69
2023-03-30T22:45:33.521Z,98072.84
2023-03-30T22:48:36.481Z,98065.53
2023-03-30T22:51:39.007Z,98061.09
2023-03-30T22:54:41.592Z,98056.75
2023-03-30T22:57:46.662Z,98051.69
2023-03-30T23:00:49.291Z,98039.63
2023-03-30T23:03:53.379Z,98031.84
2023-03-30T23:06:56.145Z,98027.97
2023-03-30T23:09:58.799Z,98021.09
2023-03-30T23:13:02.700Z,98026.03
2023-03-30T23:16:07.334Z,98025.31
2023-03-30T23:19:10.941Z,98026.03
2023-03-30T23:22:13.827Z,98019.22
2023-03-30T23:25:16.562Z,98011.88
2023-03-30T23:28:20.445Z,98003.13
2023-03-30T23:31:26.482Z,97998.72
2023-03-30T23:34:29.104Z,97993.66
2023-03-30T23:37:32.485Z,97984.91
2023-03-30T23:40:35.061Z,97968.53
2023-03-30T23:43:38.918Z,97971.38
2023-03-30T23:46:41.723Z,97967.56
2023-03-30T23:49:44.394Z,97968.53
2023-03-30T23:52:47.528Z,97968.19
2023-03-30T23:55:51.197Z,97960.69
2023-03-30T23:58:55.321Z,97955.44
